Time;durP1;ratioP1;P1;durP2;ratioP2;P2;SDS_P1;SDS_P2;PMS_P1;PMS_P2;Temp;Humidity;BMP_temperature;BMP_pressure;BME280_temperature;BME280_humidity;BME280_pressure;Samples;Min_cycle;Max_cycle;Signal;HPM_P1;HPM_P2
2024/01/12 00:00:23;;;;;;;10.20;4.65;;;3.10;99.90;;;;;;5073988;28;20178;-73
2024/01/12 00:02:48;;;;;;;;;;;3.00;99.90;;;;;;5072699;28;20049;-73
2024/01/12 00:05:14;;;;;;;14.70;4.90;;;3.00;99.90;;;;;;5073906;28;20375;-73
2024/01/12 00:07:40;;;;;;;11.57;5.03;;;3.00;99.90;;;;;;5072391;28;20044;-73
2024/01/12 00:10:06;;;;;;;16.27;6.03;;;3.00;99.90;;;;;;5073360;28;20395;-73
2024/01/12 00:12:31;;;;;;;15.20;5.80;;;3.00;99.90;;;;;;5074216;28;20059;-73
2024/01/12 00:14:57;;;;;;;15.52;4.78;;;3.00;99.90;;;;;;5073365;28;20491;-73
2024/01/12 00:17:24;;;;;;;10.70;3.97;;;3.00;99.90;;;;;;5072936;28;20102;-73
2024/01/12 00:19:49;;;;;;;9.00;3.97;;;3.00;99.90;;;;;;5074197;28;20051;-73
2024/01/12 00:22:15;;;;;;;9.55;3.72;;;3.10;99.90;;;;;;5071692;28;20119;-72
2024/01/12 00:24:40;;;;;;;;;;;3.00;99.90;;;;;;5074119;28;20048;-73
2024/01/12 00:27:06;;;;;;;14.20;4.55;;;3.10;99.90;;;;;;5073131;28;19927;-73
2024/01/12 00:29:32;;;;;;;10.75;4.10;;;3.10;99.90;;;;;;5071810;28;20391;-73
2024/01/12 00:31:57;;;;;;;10.23;4.25;;;3.20;99.90;;;;;;5073347;28;20399;-73
2024/01/12 00:34:23;;;;;;;;;;;3.10;99.90;;;;;;5073970;28;20037;-73
2024/01/12 00:36:49;;;;;;;7.45;3.72;;;3.10;99.90;;;;;;5072792;28;20010;-73
2024/01/12 00:39:17;;;;;;;7.57;4.07;;;3.20;99.90;;;;;;5072195;28;20056;-73
2024/01/12 00:41:42;;;;;;;9.13;3.80;;;3.10;99.90;;;;;;5073130;28;20097;-73
2024/01/12 00:44:08;;;;;;;10.40;3.80;;;3.20;99.90;;;;;;5071813;28;20376;-73
2024/01/12 00:46:34;;;;;;;;;;;3.20;99.90;;;;;;5073761;28;20048;-73
2024/01/12 00:48:59;;;;;;;8.20;3.72;;;3.10;99.90;;;;;;5073321;28;19916;-73
2024/01/12 00:51:25;;;;;;;;;;;3.10;99.90;;;;;;5071505;28;20530;-73
2024/01/12 00:53:50;;;;;;;10.73;3.72;;;3.20;99.90;;;;;;5071584;28;20001;-73
2024/01/12 00:56:16;;;;;;;13.85;3.80;;;3.10;99.90;;;;;;5072494;28;20110;-73
2024/01/12 00:58:42;;;;;;;11.27;3.63;;;3.20;99.90;;;;;;5072572;28;20134;-73
2024/01/12 01:01:10;;;;;;;7.22;3.75;;;3.20;99.90;;;;;;5072557;28;20442;-73
2024/01/12 01:03:37;;;;;;;13.90;4.20;;;3.20;99.90;;;;;;5072960;28;20037;-73
2024/01/12 01:06:03;;;;;;;10.23;4.22;;;3.20;99.90;;;;;;5072410;28;20044;-73
2024/01/12 01:08:28;;;;;;;7.38;3.70;;;3.20;99.90;;;;;;5072956;28;20054;-73
2024/01/12 01:10:54;;;;;;;;;;;3.20;99.90;;;;;;5071765;28;20029;-73
2024/01/12 01:13:20;;;;;;;9.43;3.75;;;3.30;99.90;;;;;;5072659;28;20537;-73
2024/01/12 01:15:45;;;;;;;10.07;4.03;;;3.30;99.90;;;;;;5072785;28;20515;-73
2024/01/12 01:18:11;;;;;;;10.48;4.15;;;3.30;99.90;;;;;;5070311;28;20471;-73
2024/01/12 01:20:37;;;;;;;9.95;4.10;;;3.30;99.90;;;;;;5072704;28;20043;-73
2024/01/12 01:23:03;;;;;;;11.43;4.50;;;3.30;99.90;;;;;;5072250;28;20127;-73
2024/01/12 01:25:29;;;;;;;9.18;4.20;;;3.30;99.90;;;;;;5071820;28;20459;-73
2024/01/12 01:27:55;;;;;;;;;;;3.30;99.90;;;;;;5073088;28;20032;-73
2024/01/12 01:30:21;;;;;;;9.98;3.28;;;3.50;99.90;;;;;;5071264;28;19956;-73
2024/01/12 01:32:48;;;;;;;12.88;3.83;;;3.20;99.90;;;;;;5071962;28;20050;-73
2024/01/12 01:35:14;;;;;;;11.98;4.85;;;3.10;99.90;;;;;;5072288;28;20502;-73
2024/01/12 01:37:40;;;;;;;9.02;4.43;;;3.10;99.90;;;;;;5070929;28;20119;-73
2024/01/12 01:40:07;;;;;;;12.30;4.32;;;3.10;99.90;;;;;;5071481;28;20120;-73
2024/01/12 01:42:33;;;;;;;11.90;3.92;;;3.00;99.90;;;;;;5072341;28;20067;-73
2024/01/12 01:45:00;;;;;;;11.38;4.40;;;2.90;99.90;;;;;;5072118;28;20407;-73
2024/01/12 01:47:26;;;;;;;11.77;4.90;;;2.90;99.90;;;;;;5071776;28;20048;-73
2024/01/12 01:49:52;;;;;;;11.13;4.28;;;2.80;99.90;;;;;;5072346;28;20063;-73
2024/01/12 01:52:19;;;;;;;9.43;4.45;;;2.80;99.90;;;;;;5071955;28;20044;-73
2024/01/12 01:54:45;;;;;;;10.23;4.28;;;2.80;99.90;;;;;;5071840;28;20053;-73
2024/01/12 01:57:11;;;;;;;9.23;4.15;;;2.80;99.90;;;;;;5071655;28;20045;-73
2024/01/12 01:59:36;;;;;;;;;;;2.80;99.90;;;;;;5072629;28;20399;-73
2024/01/12 02:02:03;;;;;;;10.77;4.22;;;2.80;99.90;;;;;;5071431;28;19920;-73
2024/01/12 02:04:29;;;;;;;7.07;3.70;;;2.80;99.90;;;;;;5072424;28;20182;-73
2024/01/12 02:06:55;;;;;;;8.90;4.18;;;2.90;99.90;;;;;;5072510;28;20044;-73
2024/01/12 02:09:22;;;;;;;11.30;4.45;;;2.70;99.90;;;;;;5071161;28;20047;-73
2024/01/12 02:11:47;;;;;;;8.48;4.00;;;2.80;99.90;;;;;;5071805;28;20076;-73
2024/01/12 02:14:13;;;;;;;12.07;4.50;;;2.80;99.90;;;;;;5070098;28;20083;-73
2024/01/12 02:16:39;;;;;;;;;;;2.80;99.90;;;;;;5072368;28;20472;-73
2024/01/12 02:19:04;;;;;;;10.50;4.28;;;2.80;99.90;;;;;;5071952;28;19959;-73
2024/01/12 02:21:30;;;;;;;7.90;4.18;;;2.80;99.90;;;;;;5073257;28;20040;-73
2024/01/12 02:23:55;;;;;;;11.27;4.32;;;2.80;99.90;;;;;;5076135;28;20126;-73
2024/01/12 02:26:21;;;;;;;7.10;3.90;;;2.80;99.90;;;;;;5075745;28;20147;-73
2024/01/12 02:28:47;;;;;;;;;;;2.80;99.90;;;;;;5074743;28;20102;-73
2024/01/12 02:31:14;;;;;;;8.13;3.80;;;2.80;99.90;;;;;;5075751;28;19971;-73
2024/01/12 02:33:39;;;;;;;9.88;4.38;;;2.80;99.90;;;;;;5076035;28;20089;-73
2024/01/12 02:36:05;;;;;;;12.02;4.32;;;2.80;99.90;;;;;;5074970;28;20466;-73
2024/01/12 02:38:30;;;;;;;;;;;2.80;99.90;;;;;;5076295;28;20045;-73
2024/01/12 02:40:56;;;;;;;9.07;4.03;;;2.80;99.90;;;;;;5076000;28;19920;-73
2024/01/12 02:43:21;;;;;;;;;;;2.80;99.90;;;;;;5074610;28;20472;-73
2024/01/12 02:45:47;;;;;;;10.60;3.90;;;2.80;99.90;;;;;;5074613;28;20019;-73
2024/01/12 02:48:12;;;;;;;;;;;2.80;99.90;;;;;;5075808;28;20044;-73
2024/01/12 02:50:38;;;;;;;11.73;4.05;;;2.90;99.90;;;;;;5074415;28;19928;-73
2024/01/12 02:53:04;;;;;;;;;;;2.80;99.90;;;;;;5075711;28;20036;-73
2024/01/12 02:55:29;;;;;;;8.73;4.18;;;2.90;99.90;;;;;;5075345;28;20422;-73
2024/01/12 02:57:55;;;;;;;;;;;2.90;99.90;;;;;;5075097;28;20045;-73
2024/01/12 03:00:20;;;;;;;11.90;4.50;;;2.90;99.90;;;;;;5074948;28;20305;-73
2024/01/12 03:02:46;;;;;;;8.73;4.20;;;2.90;99.90;;;;;;5074089;28;20041;-73
2024/01/12 03:05:11;;;;;;;;;;;3.00;99.90;;;;;;5074588;28;20051;-73
2024/01/12 03:07:37;;;;;;;11.05;4.20;;;2.90;99.90;;;;;;5074475;28;20011;-73
2024/01/12 03:10:04;;;;;;;10.35;3.90;;;2.90;99.90;;;;;;5074819;28;20057;-73
2024/01/12 03:12:29;;;;;;;8.13;3.85;;;2.90;99.90;;;;;;5073432;28;20131;-73
2024/01/12 03:14:55;;;;;;;8.52;3.60;;;2.90;99.90;;;;;;5074941;28;20120;-73
2024/01/12 03:17:21;;;;;;;;;;;2.90;99.90;;;;;;5075523;28;20468;-73
2024/01/12 03:19:46;;;;;;;12.07;3.90;;;3.10;99.90;;;;;;5074012;28;19921;-73
2024/01/12 03:22:12;;;;;;;;;;;2.90;99.90;;;;;;5074090;28;20052;-73
2024/01/12 03:24:37;;;;;;;10.25;3.97;;;4.20;99.90;;;;;;5073761;28;20364;-73
2024/01/12 03:27:03;;;;;;;;;;;2.90;99.90;;;;;;5074762;28;20072;-73
2024/01/12 03:29:28;;;;;;;8.50;3.80;;;2.90;99.90;;;;;;5074823;28;19921;-73
2024/01/12 03:31:54;;;;;;;9.23;3.80;;;2.90;99.90;;;;;;5072352;28;20068;-73
2024/01/12 03:34:20;;;;;;;;;;;2.90;99.90;;;;;;5072552;28;20048;-73
2024/01/12 03:36:45;;;;;;;9.65;3.47;;;2.90;99.90;;;;;;5073628;28;19943;-73
2024/01/12 03:39:11;;;;;;;;;;;2.90;99.90;;;;;;5074080;28;20138;-73
2024/01/12 03:41:37;;;;;;;8.07;3.70;;;2.90;99.90;;;;;;5072537;28;20303;-73
2024/01/12 03:44:02;;;;;;;11.88;3.63;;;2.90;99.90;;;;;;5073500;28;20040;-73
2024/01/12 03:46:28;;;;;;;;;;;2.90;99.90;;;;;;5074328;28;20510;-73
2024/01/12 03:48:55;;;;;;;9.35;3.17;;;3.90;99.90;;;;;;5074491;28;19924;-73
2024/01/12 03:51:21;;;;;;;9.70;3.33;;;2.90;99.90;;;;;;5074017;28;20061;-73
2024/01/12 03:53:46;;;;;;;8.98;3.45;;;2.90;99.90;;;;;;5073232;28;20067;-73
2024/01/12 03:56:12;;;;;;;;;;;2.90;99.90;;;;;;5073230;28;20040;-72
2024/01/12 03:58:38;;;;;;;12.27;2.90;;;2.90;99.90;;;;;;5074691;28;19920;-73
2024/01/12 04:01:07;;;;;;;8.23;3.05;;;2.90;99.90;;;;;;5072282;28;20052;-73
2024/01/12 04:03:33;;;;;;;10.48;3.30;;;2.90;99.90;;;;;;5073825;28;20032;-73
2024/01/12 04:05:59;;;;;;;11.20;3.17;;;2.90;99.90;;;;;;5074182;28;20114;-73
2024/01/12 04:08:25;;;;;;;10.02;3.35;;;3.50;99.90;;;;;;5073205;28;20120;-73
2024/01/12 04:10:50;;;;;;;;;;;2.90;99.90;;;;;;5074453;28;20503;-73
2024/01/12 04:13:16;;;;;;;10.23;3.05;;;2.90;99.90;;;;;;5074003;28;19921;-73
2024/01/12 04:15:43;;;;;;;;;;;3.30;99.90;;;;;;5072800;28;20045;-74
2024/01/12 04:18:08;;;;;;;11.52;3.15;;;2.80;99.90;;;;;;5072115;28;19920;-74
2024/01/12 04:20:34;;;;;;;7.47;2.80;;;2.80;99.90;;;;;;5072675;28;20055;-74
2024/01/12 04:23:00;;;;;;;8.10;2.80;;;2.80;99.90;;;;;;5072714;28;20045;-74
2024/01/12 04:25:25;;;;;;;;;;;2.90;99.90;;;;;;5073054;28;20399;-74
2024/01/12 04:27:51;;;;;;;7.63;2.95;;;2.80;99.90;;;;;;5071876;28;19920;-72
2024/01/12 04:30:16;;;;;;;;;;;2.80;99.90;;;;;;5073820;28;20145;-71
2024/01/12 04:32:42;;;;;;;7.13;2.63;;;2.80;99.90;;;;;;5073494;28;19920;-71
2024/01/12 04:35:09;;;;;;;;;;;3.70;99.90;;;;;;5071402;28;20051;-71
2024/01/12 04:37:35;;;;;;;9.07;2.70;;;2.80;99.90;;;;;;5072692;28;19920;-71
2024/01/12 04:40:03;;;;;;;11.45;3.20;;;2.90;99.90;;;;;;5072127;28;20041;-72
2024/01/12 04:42:29;;;;;;;16.17;5.25;;;2.90;99.90;;;;;;5072739;28;20127;-71
2024/01/12 04:44:54;;;;;;;18.15;7.20;;;2.90;99.90;;;;;;5071574;28;20468;-72
2024/01/12 04:47:23;;;;;;;14.45;4.78;;;2.90;99.90;;;;;;5073248;28;20245;-72
2024/01/12 04:49:48;;;;;;;13.07;3.75;;;3.00;99.90;;;;;;5071366;28;20144;-72
2024/01/12 04:52:14;;;;;;;;;;;3.00;99.90;;;;;;5073317;28;20052;-72
2024/01/12 04:54:40;;;;;;;16.00;3.78;;;3.00;99.90;;;;;;5071682;28;19920;-71
2024/01/12 04:57:05;;;;;;;15.98;3.78;;;3.00;99.90;;;;;;5071087;28;20044;-71
2024/01/12 04:59:31;;;;;;;19.70;3.53;;;3.10;99.90;;;;;;5072068;28;20044;-71
2024/01/12 05:01:56;;;;;;;12.15;3.03;;;3.10;99.90;;;;;;5071940;28;20131;-72
2024/01/12 05:04:22;;;;;;;19.20;3.53;;;3.10;99.90;;;;;;5071421;28;20036;-72
2024/01/12 05:06:48;;;;;;;;;;;3.10;99.90;;;;;;5073252;28;20090;-72
2024/01/12 05:09:14;;;;;;;16.27;3.33;;;3.10;99.90;;;;;;5072834;28;19981;-71
2024/01/12 05:11:39;;;;;;;13.90;3.03;;;3.20;99.90;;;;;;5072157;28;20049;-72
2024/01/12 05:14:06;;;;;;;19.35;3.30;;;3.20;99.90;;;;;;5069729;28;20503;-72
2024/01/12 05:16:34;;;;;;;15.52;3.25;;;3.20;99.90;;;;;;5070407;28;20056;-72
2024/01/12 05:18:59;;;;;;;13.65;2.50;;;3.20;99.90;;;;;;5071910;28;20124;-72
2024/01/12 05:21:25;;;;;;;14.05;3.38;;;3.30;99.90;;;;;;5070814;28;20483;-72
2024/01/12 05:23:50;;;;;;;19.50;2.70;;;3.30;99.90;;;;;;5072916;28;20051;-71
2024/01/12 05:26:16;;;;;;;;;;;3.30;99.90;;;;;;5070945;28;20051;-72
2024/01/12 05:28:45;;;;;;;12.10;2.42;;;3.30;99.90;;;;;;5071312;28;19920;-72
2024/01/12 05:31:13;;;;;;;11.45;2.33;;;3.30;99.90;;;;;;5071759;28;20041;-71
2024/01/12 05:33:40;;;;;;;18.63;2.40;;;3.40;99.90;;;;;;5104974;28;20044;-72
2024/01/12 05:36:05;;;;;;;19.70;3.20;;;3.40;99.90;;;;;;5071211;28;20043;-72
2024/01/12 05:38:31;;;;;;;12.95;2.30;;;3.40;99.90;;;;;;5070198;28;20041;-71
2024/01/12 05:40:56;;;;;;;;;;;3.40;99.90;;;;;;5072992;28;20054;-72
2024/01/12 05:43:22;;;;;;;11.90;2.83;;;3.50;99.90;;;;;;5070164;28;19921;-73
2024/01/12 05:45:48;;;;;;;15.02;2.70;;;3.60;99.90;;;;;;5070508;28;20060;-72
2024/01/12 05:48:13;;;;;;;19.33;3.08;;;3.70;99.90;;;;;;5070722;28;20408;-73
2024/01/12 05:50:39;;;;;;;;;;;3.60;99.90;;;;;;5071406;28;20143;-72
2024/01/12 05:53:06;;;;;;;14.45;2.22;;;3.70;99.90;;;;;;5069726;28;19921;-72
2024/01/12 05:55:32;;;;;;;9.70;2.28;;;3.70;99.90;;;;;;5070942;28;20106;-72
2024/01/12 05:58:00;;;;;;;13.13;2.42;;;3.70;99.90;;;;;;5071342;28;20052;-73
2024/01/12 06:00:28;;;;;;;17.33;2.53;;;3.90;99.90;;;;;;5069842;28;20134;-75
2024/01/12 06:02:54;;;;;;;11.10;2.42;;;3.80;99.90;;;;;;5071409;28;20048;-75
2024/01/12 06:05:19;;;;;;;15.38;2.42;;;3.80;99.90;;;;;;5070680;28;20488;-72
2024/01/12 06:07:45;;;;;;;;;;;3.80;99.90;;;;;;5072125;28;20037;-73
2024/01/12 06:10:12;;;;;;;11.35;2.03;;;3.80;99.90;;;;;;5070085;28;20387;-72
2024/01/12 06:12:38;;;;;;;13.68;2.30;;;3.80;99.90;;;;;;5071505;28;20059;-72
2024/01/12 06:15:04;;;;;;;10.35;2.15;;;3.80;99.90;;;;;;5070660;28;20048;-73
2024/01/12 06:17:30;;;;;;;14.27;2.42;;;3.80;99.90;;;;;;5072024;28;20043;-74
2024/01/12 06:19:55;;;;;;;13.32;2.80;;;3.80;99.90;;;;;;5071334;28;20052;-77
2024/01/12 06:22:21;;;;;;;;;;;3.80;99.90;;;;;;5070089;28;20396;-78
2024/01/12 06:24:46;;;;;;;9.82;2.20;;;3.80;99.90;;;;;;5071997;28;20012;-79
2024/01/12 06:27:12;;;;;;;10.73;1.98;;;3.80;99.90;;;;;;5070574;28;20044;-74
2024/01/12 06:29:38;;;;;;;15.10;2.17;;;4.20;99.90;;;;;;5071524;28;20070;-75
2024/01/12 06:32:06;;;;;;;;;;;3.80;99.90;;;;;;5070614;28;20045;-75
2024/01/12 06:34:32;;;;;;;11.55;2.33;;;3.80;99.90;;;;;;5070787;28;19927;-74
2024/01/12 06:36:57;;;;;;;11.85;2.17;;;3.90;99.90;;;;;;5072228;28;20037;-75
2024/01/12 06:39:23;;;;;;;;;;;3.90;99.90;;;;;;5071737;28;20459;-74
2024/01/12 06:41:52;;;;;;;6.00;1.73;;;3.90;99.90;;;;;;5071311;28;20340;-73
2024/01/12 06:44:18;;;;;;;18.25;3.47;;;3.90;99.90;;;;;;5070588;28;20105;-75
2024/01/12 06:46:44;;;;;;;16.63;3.10;;;4.00;99.90;;;;;;5068105;28;20052;-76
2024/01/12 06:49:10;;;;;;;15.93;2.53;;;4.00;99.90;;;;;;5066291;28;20102;-78
2024/01/12 06:51:35;;;;;;;11.55;2.67;;;4.00;99.90;;;;;;5068020;28;20111;-77
2024/01/12 06:54:02;;;;;;;17.95;4.82;;;4.00;99.90;;;;;;5068908;28;20512;-77
2024/01/12 06:56:32;;;;;;;15.52;3.10;;;4.00;99.90;;;;;;5069334;28;20040;-76
2024/01/12 06:58:58;;;;;;;12.10;3.20;;;4.00;99.90;;;;;;5068021;28;20075;-76
2024/01/12 07:01:24;;;;;;;16.27;2.40;;;3.90;99.90;;;;;;5067496;28;20053;-73
2024/01/12 07:03:51;;;;;;;18.88;3.85;;;4.00;99.90;;;;;;5066036;28;20498;-72
2024/01/12 07:06:20;;;;;;;10.82;2.97;;;4.00;99.90;;;;;;5068762;28;20696;-75
2024/01/12 07:08:46;;;;;;;13.85;2.95;;;5.20;99.90;;;;;;5069403;28;20064;-73
2024/01/12 07:11:11;;;;;;;16.13;4.30;;;4.00;99.90;;;;;;5070897;28;20072;-73
2024/01/12 07:13:37;;;;;;;15.18;5.05;;;4.00;99.90;;;;;;5071516;28;20170;-71
2024/01/12 07:16:03;;;;;;;20.15;7.90;;;4.00;99.90;;;;;;5073359;28;20037;-71
2024/01/12 07:18:28;;;;;;;30.42;10.73;;;4.00;99.90;;;;;;5073436;28;20395;-72
2024/01/12 07:20:56;;;;;;;19.05;6.00;;;4.00;99.90;;;;;;5072465;28;20477;-74
2024/01/12 07:23:22;;;;;;;7.32;3.10;;;4.50;99.90;;;;;;5073471;28;20095;-73
2024/01/12 07:25:47;;;;;;;18.42;2.92;;;4.00;99.90;;;;;;5072883;28;20507;-74
2024/01/12 07:28:13;;;;;;;13.57;3.88;;;4.00;99.90;;;;;;5074359;28;20392;-72
2024/01/12 07:30:40;;;;;;;18.45;5.28;;;4.00;99.90;;;;;;5073225;28;20041;-71
2024/01/12 07:33:06;;;;;;;15.18;4.85;;;4.10;99.90;;;;;;5072294;28;20044;-72
2024/01/12 07:35:31;;;;;;;20.00;4.65;;;4.10;99.90;;;;;;5074345;28;20093;-73
2024/01/12 07:37:57;;;;;;;19.58;4.95;;;4.90;99.90;;;;;;5073566;28;20048;-74
2024/01/12 07:40:23;;;;;;;;;;;4.40;99.90;;;;;;5073748;28;20047;-70
2024/01/12 07:42:48;;;;;;;19.52;3.75;;;4.00;99.90;;;;;;5072968;28;19928;-70
2024/01/12 07:45:14;;;;;;;14.02;3.53;;;4.00;99.90;;;;;;5070364;28;20097;-73
2024/01/12 07:47:39;;;;;;;;;;;4.00;99.90;;;;;;5079520;28;20032;-75
2024/01/12 07:50:11;;;;;;;11.95;3.88;;;4.00;99.90;;;;;;5073906;28;20013;-74
2024/01/12 07:52:40;;;;;;;15.10;4.43;;;4.00;99.90;;;;;;5073354;28;20036;-75
2024/01/12 07:55:06;;;;;;;22.33;4.32;;;5.20;99.90;;;;;;5073894;28;20058;-73
2024/01/12 07:57:32;;;;;;;17.50;4.35;;;4.00;99.90;;;;;;5071933;28;20650;-73
2024/01/12 07:59:58;;;;;;;14.20;3.95;;;4.00;99.90;;;;;;5069783;28;20060;-73
2024/01/12 08:02:23;;;;;;;15.48;4.00;;;4.90;99.90;;;;;;5072059;28;20399;-71
2024/01/12 08:04:49;;;;;;;14.05;3.50;;;4.00;99.90;;;;;;5071918;28;20041;-72
2024/01/12 08:07:15;;;;;;;;;;;4.00;99.90;;;;;;5070533;28;20048;-72
2024/01/12 08:09:40;;;;;;;18.85;2.70;;;4.10;99.90;;;;;;5072285;28;19932;-72
2024/01/12 08:12:06;;;;;;;;;;;4.00;99.90;;;;;;5073019;28;20040;-72
2024/01/12 08:14:31;;;;;;;13.32;5.25;;;4.10;99.90;;;;;;5072061;28;19927;-72
2024/01/12 08:16:57;;;;;;;;;;;4.00;99.90;;;;;;5074417;28;20052;-71
2024/01/12 08:19:22;;;;;;;17.98;4.85;;;4.10;99.90;;;;;;5071935;28;19927;-70
2024/01/12 08:21:48;;;;;;;13.82;3.72;;;4.10;99.90;;;;;;5072992;28;20037;-71
2024/01/12 08:24:14;;;;;;;12.30;2.88;;;4.10;99.90;;;;;;5073263;28;20476;-71
2024/01/12 08:26:39;;;;;;;;;;;4.10;99.90;;;;;;5074358;28;20066;-71
2024/01/12 08:29:05;;;;;;;12.73;2.90;;;4.10;99.90;;;;;;5072618;28;19921;-70
2024/01/12 08:31:30;;;;;;;;;;;4.10;99.90;;;;;;5074472;28;20041;-70
2024/01/12 08:33:56;;;;;;;13.10;3.10;;;4.10;99.90;;;;;;5073282;28;19967;-71
2024/01/12 08:36:22;;;;;;;13.93;3.70;;;4.10;99.90;;;;;;5073620;28;20081;-70
2024/01/12 08:38:47;;;;;;;17.35;3.30;;;4.10;99.90;;;;;;5073438;28;20036;-70
2024/01/12 08:41:13;;;;;;;13.40;2.92;;;4.10;99.90;;;;;;5072607;28;20547;-70
2024/01/12 08:43:39;;;;;;;14.30;2.75;;;4.10;99.90;;;;;;5072035;28;20044;-70
2024/01/12 08:46:08;;;;;;;18.40;4.60;;;4.10;99.90;;;;;;5072708;28;20127;-70
2024/01/12 08:48:34;;;;;;;11.65;4.30;;;4.20;99.90;;;;;;5072885;28;20051;-70
2024/01/12 08:51:00;;;;;;;17.00;4.15;;;4.10;99.90;;;;;;5073062;28;20056;-70
2024/01/12 08:53:26;;;;;;;15.40;3.40;;;4.10;99.90;;;;;;5072869;28;20451;-71
2024/01/12 08:55:52;;;;;;;21.88;6.03;;;4.10;99.90;;;;;;5071257;28;20126;-71
2024/01/12 08:58:18;;;;;;;15.25;3.80;;;4.20;99.90;;;;;;5072647;28;20548;-71
2024/01/12 09:00:44;;;;;;;18.70;5.30;;;4.20;99.90;;;;;;5073336;28;20495;-70
2024/01/12 09:03:09;;;;;;;22.35;7.50;;;4.20;99.90;;;;;;5070320;28;20110;-71
2024/01/12 09:05:35;;;;;;;22.02;7.32;;;4.30;99.90;;;;;;5072626;28;20044;-71
2024/01/12 09:08:01;;;;;;;;;;;4.30;99.90;;;;;;5073159;28;20032;-70
2024/01/12 09:10:27;;;;;;;19.17;5.65;;;4.30;99.90;;;;;;5072588;28;19927;-70
2024/01/12 09:12:53;;;;;;;15.73;3.90;;;4.30;99.90;;;;;;5072897;28;20048;-71
2024/01/12 09:15:18;;;;;;;9.55;2.83;;;4.40;99.90;;;;;;5072290;28;20044;-70
2024/01/12 09:17:44;;;;;;;13.80;3.58;;;4.40;99.90;;;;;;5072652;28;20357;-71
2024/01/12 09:20:10;;;;;;;11.93;2.80;;;4.40;99.90;;;;;;5072208;28;20105;-71
2024/01/12 09:22:36;;;;;;;10.45;2.38;;;4.40;99.90;;;;;;5072852;28;20044;-71
2024/01/12 09:25:02;;;;;;;13.70;2.53;;;4.40;99.90;;;;;;5071489;28;20047;-71
2024/01/12 09:27:28;;;;;;;9.50;1.90;;;4.50;99.90;;;;;;5072518;28;20051;-71
2024/01/12 09:29:53;;;;;;;13.90;2.95;;;4.50;99.90;;;;;;5072262;28;20044;-71
2024/01/12 09:32:19;;;;;;;10.25;2.85;;;4.50;99.90;;;;;;5070924;28;20037;-70
2024/01/12 09:34:45;;;;;;;;;;;4.80;99.90;;;;;;5053035;28;20049;-71
2024/01/12 09:37:10;;;;;;;12.60;2.63;;;4.60;99.90;;;;;;5050801;28;19920;-71
2024/01/12 09:39:36;;;;;;;15.77;3.33;;;4.60;99.90;;;;;;5052488;28;20041;-71
2024/01/12 09:42:02;;;;;;;25.02;4.47;;;4.60;99.90;;;;;;5084561;28;20396;-71
2024/01/12 09:44:28;;;;;;;;;;;4.60;99.90;;;;;;5053692;28;20095;-71
2024/01/12 09:46:58;;;;;;;19.77;3.92;;;4.60;99.90;;;;;;5072549;28;19978;-71
2024/01/12 09:49:28;;;;;;;19.02;4.82;;;4.60;99.90;;;;;;5072641;28;20051;-71
2024/01/12 09:51:59;;;;;;;14.20;4.00;;;4.60;99.90;;;;;;5071257;28;20052;-71
2024/01/12 09:54:24;;;;;;;14.50;3.80;;;4.60;99.90;;;;;;5072598;28;20386;-71
2024/01/12 09:56:55;;;;;;;12.00;3.00;;;4.60;99.90;;;;;;5072545;28;20044;-70
2024/01/12 09:59:22;;;;;;;13.20;2.60;;;4.60;99.90;;;;;;5071364;28;20048;-70
2024/01/12 10:01:50;;;;;;;12.10;2.38;;;4.60;99.90;;;;;;5084750;28;20052;-71
2024/01/12 10:04:16;;;;;;;15.20;3.00;;;4.60;99.90;;;;;;5051686;28;20534;-70
2024/01/12 10:06:42;;;;;;;11.32;2.63;;;4.60;99.90;;;;;;5050523;28;20045;-72
2024/01/12 10:09:08;;;;;;;;;;;4.60;99.90;;;;;;5084474;28;20041;-72
2024/01/12 10:11:34;;;;;;;11.30;3.63;;;4.60;99.90;;;;;;5070784;28;19925;-72
2024/01/12 10:14:00;;;;;;;;;;;4.60;99.90;;;;;;5071723;28;20499;-75
2024/01/12 10:16:31;;;;;;;14.70;3.38;;;4.60;99.90;;;;;;5072251;28;19917;-72
2024/01/12 10:18:57;;;;;;;10.43;2.58;;;4.70;99.90;;;;;;5068575;28;20082;-72
2024/01/12 10:21:24;;;;;;;14.07;2.50;;;4.30;99.90;;;;;;5069721;28;20040;-71
2024/01/12 10:24:02;;;;;;;16.35;2.55;;;4.70;99.90;;;;;;5072237;28;20048;-71
2024/01/12 10:26:27;;;;;;;14.88;2.40;;;4.70;99.90;;;;;;5071517;28;20109;-71
2024/01/12 10:28:53;;;;;;;13.77;2.40;;;4.70;99.90;;;;;;5071089;28;20574;-71
2024/01/12 10:31:19;;;;;;;;;;;4.70;99.90;;;;;;5072164;28;20058;-71
2024/01/12 10:33:46;;;;;;;12.82;3.30;;;4.70;99.90;;;;;;5071318;28;19921;-70
2024/01/12 10:36:18;;;;;;;12.50;2.00;;;4.70;99.90;;;;;;5071711;28;20045;-71
2024/01/12 10:38:45;;;;;;;12.73;2.17;;;4.80;99.90;;;;;;5070359;28;20399;-71
2024/01/12 10:41:11;;;;;;;8.43;2.05;;;4.80;99.90;;;;;;5071156;28;20056;-73
2024/01/12 10:43:38;;;;;;;12.98;2.38;;;4.70;99.90;;;;;;5074428;28;20040;-72
2024/01/12 10:46:35;;;;;;;6.68;2.15;;;4.70;99.90;;;;;;5075334;28;20102;-73
2024/01/12 10:49:15;;;;;;;9.98;1.80;;;4.80;99.90;;;;;;5074637;28;20036;-72
2024/01/12 10:52:00;;;;;;;10.98;1.92;;;4.80;99.90;;;;;;5075070;28;20056;-72
2024/01/12 10:54:29;;;;;;;7.55;1.80;;;4.80;99.90;;;;;;5075568;28;20049;-72
2024/01/12 10:56:55;;;;;;;16.42;3.25;;;4.90;99.90;;;;;;5074535;28;20048;-73
2024/01/12 10:59:23;;;;;;;12.27;2.50;;;4.90;99.90;;;;;;5075121;28;20048;-73
2024/01/12 11:01:49;;;;;;;13.95;2.50;;;5.00;99.90;;;;;;5074938;28;20037;-73
2024/01/12 11:04:15;;;;;;;10.95;2.13;;;5.00;99.90;;;;;;5073364;28;20068;-74
2024/01/12 11:06:45;;;;;;;8.70;1.92;;;5.00;99.90;;;;;;5075094;28;20124;-73
2024/01/12 11:09:12;;;;;;;16.73;3.30;;;5.00;99.90;;;;;;5074300;28;20066;-73
2024/01/12 11:11:49;;;;;;;20.63;5.85;;;5.10;99.90;;;;;;5075125;28;20049;-73
2024/01/12 11:14:16;;;;;;;11.68;2.92;;;5.20;99.90;;;;;;5074842;28;20090;-72
2024/01/12 11:16:42;;;;;;;12.63;3.05;;;5.10;99.90;;;;;;5072502;28;20119;-74
2024/01/12 11:19:14;;;;;;;11.30;2.65;;;5.20;99.90;;;;;;5073697;28;20131;-72
2024/01/12 11:21:41;;;;;;;16.50;2.70;;;5.10;99.90;;;;;;5075028;28;20479;-74
2024/01/12 11:24:09;;;;;;;14.35;3.10;;;5.10;99.90;;;;;;5073654;28;20048;-74
2024/01/12 11:26:35;;;;;;;13.32;2.83;;;5.10;99.90;;;;;;5075280;28;20040;-73
2024/01/12 11:29:00;;;;;;;15.27;3.13;;;5.10;99.90;;;;;;5074797;28;20044;-73
2024/01/12 11:31:27;;;;;;;14.82;3.40;;;5.10;99.90;;;;;;5073053;28;20040;-73
2024/01/12 11:34:02;;;;;;;21.33;2.85;;;5.20;99.90;;;;;;5073295;28;20111;-73
2024/01/12 11:36:29;;;;;;;13.52;2.70;;;5.20;99.90;;;;;;5074396;28;20049;-73
2024/01/12 11:39:01;;;;;;;16.95;2.58;;;5.20;99.90;;;;;;5074322;28;20094;-73
2024/01/12 11:41:29;;;;;;;10.18;2.40;;;5.20;99.90;;;;;;5073466;28;20048;-71
2024/01/12 11:43:54;;;;;;;27.90;12.40;;;6.10;99.90;;;;;;5073702;28;20059;-73
2024/01/12 11:46:23;;;;;;;19.08;7.05;;;5.30;99.90;;;;;;5073934;28;20044;-72
2024/01/12 11:48:49;;;;;;;15.48;3.50;;;5.30;99.90;;;;;;5074691;28;20036;-72
2024/01/12 11:51:27;;;;;;;11.93;6.95;;;5.30;99.90;;;;;;5073332;28;20088;-73
2024/01/12 11:53:57;;;;;;;12.15;4.53;;;5.40;99.90;;;;;;5072755;28;20117;-74
2024/01/12 11:56:24;;;;;;;11.80;3.72;;;5.40;99.90;;;;;;5074091;28;20044;-74
2024/01/12 11:58:51;;;;;;;12.02;2.83;;;5.50;99.90;;;;;;5072484;28;20387;-71
2024/01/12 12:01:17;;;;;;;20.40;3.10;;;5.50;99.90;;;;;;5073435;28;20036;-71
2024/01/12 12:03:44;;;;;;;12.55;3.42;;;5.50;99.90;;;;;;5072824;28;20087;-71
2024/01/12 12:06:11;;;;;;;12.23;3.58;;;5.40;99.90;;;;;;5072066;28;20040;-71
2024/01/12 12:08:38;;;;;;;13.27;3.88;;;5.90;99.90;;;;;;5072868;28;20083;-72
2024/01/12 12:11:05;;;;;;;14.65;4.25;;;5.40;99.90;;;;;;5073996;28;20040;-72
2024/01/12 12:13:32;;;;;;;18.27;4.97;;;5.40;99.90;;;;;;5071949;28;20491;-71
2024/01/12 12:15:58;;;;;;;15.80;3.28;;;5.40;99.90;;;;;;5074206;28;20040;-72
2024/01/12 12:18:24;;;;;;;14.25;3.35;;;5.50;99.90;;;;;;5072799;28;20048;-72
2024/01/12 12:20:49;;;;;;;14.98;4.15;;;5.60;99.90;;;;;;5073342;28;20506;-72
2024/01/12 12:23:15;;;;;;;13.80;3.50;;;5.70;99.90;;;;;;5073460;28;20476;-73
2024/01/12 12:25:42;;;;;;;;;;;5.70;99.90;;;;;;5073084;28;20059;-73
2024/01/12 12:28:08;;;;;;;19.45;5.00;;;5.70;99.90;;;;;;5072878;28;19968;-74
2024/01/12 12:30:34;;;;;;;15.35;4.40;;;5.60;99.90;;;;;;5074041;28;20102;-73
2024/01/12 12:33:00;;;;;;;17.55;4.40;;;5.50;99.90;;;;;;5072983;28;20055;-73
2024/01/12 12:35:26;;;;;;;15.05;3.00;;;5.50;99.90;;;;;;5073006;28;20037;-73
2024/01/12 12:37:52;;;;;;;12.32;2.33;;;5.50;99.90;;;;;;5074039;28;20033;-73
2024/01/12 12:40:19;;;;;;;11.05;1.98;;;5.50;99.90;;;;;;5072793;28;20079;-72
2024/01/12 12:42:46;;;;;;;12.50;2.50;;;6.20;99.90;;;;;;5073398;28;20507;-74
2024/01/12 12:45:12;;;;;;;13.27;2.53;;;5.50;99.90;;;;;;5071493;28;20045;-75
2024/01/12 12:47:39;;;;;;;9.80;2.45;;;5.60;99.90;;;;;;5073091;28;20123;-73
2024/01/12 12:50:09;;;;;;;14.15;2.75;;;5.60;99.90;;;;;;5071584;28;20074;-73
2024/01/12 12:52:36;;;;;;;12.23;2.25;;;5.50;99.90;;;;;;5073312;28;20036;-73
2024/01/12 12:55:03;;;;;;;9.35;1.88;;;5.60;99.90;;;;;;5071839;28;20041;-75
2024/01/12 12:57:29;;;;;;;16.85;3.10;;;5.70;99.90;;;;;;5071881;28;20136;-74